Pagrindinis puslapis
METAR-TAF:

METAR-TAF

Oro uostai :

Antananaryvas, Madagaskaras

platuma: 18-48S, ilguma: 047-29E, Aukštis: 1279 m

Dabartinis oras

Ataskaita buvo paskelbta 12 minutes, ne 22:30 UTC
Vėjas 5 kt iš Rytų
Temperatūra 16°C
Drėgmė 88%
Slėgis 1023 hPa
Matomumas 10 km arba daugiau
Su prošvaistėmis ne aukštis 2000 ft

METAR: FMMI 182230Z 10005KT 9999 BKN020 16/14 Q1023 NOSIG

Laikas: 01:42 (22:42 UTC)

Prognozė

Ataskaita buvo paskelbta 5 valandos ir 42 minutes, ne 17:00 UTC
Prognozė galioja nuo 18 metu 18 UTC su 19 metu 24 UTC
Vėjas 10 kt iš Rytų/Pietryčių
Matomumas 10 km arba daugiau
Išsisklaidę debesys ne aukštis 2000 ft
Tapsmas
nuo 18 metu 20 UTC su 18 metu 23 UTC
Vėjas kt iš Šiaurės
Tikimybė 40%
nuo 19 metu 02 UTC su 19 metu 06 UTC
Matomumas: 1500 m
Su prošvaistėmis ne aukštis 500 ft
rūkana
Tapsmas
nuo 19 metu 07 UTC su 19 metu 10 UTC
Vėjas 10 kt iš Rytų/Pietryčių

TAF: FMMI 181700Z 1818/1924 12010KT 9999 SCT020 BECMG 1820/1823 00000KT PROB40 1902/1906 1500 BR BKN005 BECMG 1907/1910 12010KT

Orai ataskaitas ir orų prognozės (METAR, TAF).

turimą stotys yra geltonos ir raudonos taškus žemėlapyje.

Perkelti pele per norėdami pamatyti stoties vardą.

Tada spustelėkite, norėdami matyti oro stebėjimo ir prognozės.

Norėdami pakeisti žemėlapį: spustelėkite ant žalios mygtukų su juodo kryžiaus žemyn,; žalią mygtuką su brūkšneliu, jei norite nutolinti; arba žalių rodyklių gretimoms žemėlapius.


METAR-TAF: